KSLO/SLO METAR and TAF weather

Enter ICAO airport designator
Station Type Date Time Source
KSLO METAR 2019/06/27 04:35 UTC NOAA

KSLO 270435Z AUTO 00000KT 10SM CLR 21/20 A3013 RMK AO2 T02110200


Station Type Date Time Source
KSLO Decoded METAR 2019/06/27 04:35 UTC NOAA

Salem, Salem-Leckrone Airport, IL, United States (KSLO) 38-38-34N 088-57-51W 174M
Jun 27, 2019 - 12:35 AM EDT / 2019.06.27 0435 UTC
Wind: Calm:0
Visibility: 10 mile(s):0
Sky conditions: clear
Temperature: 70.0 F (21.1 C)
Dew Point: 68.0 F (20.0 C)
Relative Humidity: 93%
Pressure (altimeter): 30.13 in. Hg (1020 hPa)
ob: KSLO 270435Z AUTO 00000KT 10SM CLR 21/20 A3013 RMK AO2 T02110200
cycle: 4

Station Type Date Time Source
KSLO TAF UTC NOAA

Error!

Example: see airport list